Portada
METAR-TAF:

METAR-TAF

Aeropuertos :

LaGrange-Callaway Airport

Lagrange, Georgia, Estados Unidos

latitud: 33-00-32N, longitud: 085-04-21W, altitud: 211 m

Observación

El informe se hizo hace 18 minutos, a las 19:35 UTC
Viento 6 kt del noroeste
Temperatura 12°C
Humedad 71%
Presión 1014 hPa
Visibilidad: 16.1 km
Cielo nuboso a una altura de 2100 ft
Cielo cubierto a una altura de 3000 ft

METAR: KLGC 271935Z AUTO 32006KT 10SM BKN021 OVC030 12/07 A2993 RMK AO2 T01200066

Hora: 14:53 (19:53 UTC)


TAF: falta

Observaciones y pronósticos meteorológicos de más de 4000 aeropuertos (mensajes METAR y TAF).

Los puntos amarillos y rojos representan las estaciones disponibles.

Ponga el ratón en el punto deseado para ver el nombre de la estación.

Haga clic para ver las observaciones y los pronósticos meteorológicos.

Para cambiar el mapa : haga clic en los botones verdes con una cruz de color negro para hacer un zoom, en el botón verde con un guión para alejar o en las flechas verdes para mapas adyacentes.


METAR-TAF: